Time;durP1;ratioP1;P1;durP2;ratioP2;P2;SDS_P1;SDS_P2;PMS_P1;PMS_P2;Temp;Humidity;BMP_temperature;BMP_pressure;BME280_temperature;BME280_humidity;BME280_pressure;Samples;Min_cycle;Max_cycle;Signal;HPM_P1;HPM_P2
2023/12/01 00:00:11;;;;;;;14.37;4.37;;;;;3.40;95116.00;;;;4990113;28;20426;-68
2023/12/01 00:03:01;;;;;;;8.83;2.97;;;;;3.60;95097.00;;;;4988357;28;21017;-68
2023/12/01 00:05:50;;;;;;;8.47;2.70;;;;;4.00;95113.00;;;;4987200;28;20492;-68
2023/12/01 00:08:39;;;;;;;15.20;4.73;;;;;3.90;95114.00;;;;4983666;28;20462;-68
2023/12/01 00:11:29;;;;;;;9.27;3.03;;;;;4.00;95108.00;;;;4989128;28;20425;-69
2023/12/01 00:14:18;;;;;;;9.60;3.17;;;;;4.20;95114.00;;;;4990493;28;20437;-69
2023/12/01 00:17:07;;;;;;;8.93;2.90;;;;;3.80;95117.00;;;;4983103;28;20443;-68
2023/12/01 00:19:56;;;;;;;8.20;2.70;;;;;3.50;95107.00;;;;4990360;28;20835;-69
2023/12/01 00:22:46;;;;;;;13.77;4.43;;;;;3.60;95111.00;;;;4986595;28;20832;-68
2023/12/01 00:25:35;;;;;;;15.53;4.87;;;;;3.80;95114.00;;;;4988288;28;20438;-68
2023/12/01 00:28:25;;;;;;;8.57;2.77;;;;;4.20;95128.00;;;;4989917;28;20830;-69
2023/12/01 00:31:14;;;;;;;6.50;2.10;;;;;4.20;95133.00;;;;4983015;28;20434;-70
2023/12/01 00:34:03;;;;;;;5.07;1.93;;;;;4.30;95131.00;;;;4985926;28;20433;-69
2023/12/01 00:36:53;;;;;;;7.60;2.47;;;;;3.70;95115.00;;;;4989885;28;20434;-69
2023/12/01 00:39:42;;;;;;;9.33;2.87;;;;;3.70;95122.00;;;;4988897;28;20449;-69
2023/12/01 00:42:31;;;;;;;8.57;2.80;;;;;3.90;95138.00;;;;4986684;28;20496;-69
2023/12/01 00:45:21;;;;;;;12.77;4.03;;;;;3.80;95155.00;;;;4989016;28;20826;-69
2023/12/01 00:48:10;;;;;;;10.00;3.17;;;;;4.00;95160.00;;;;4988730;28;20461;-69
2023/12/01 00:50:59;;;;;;;9.43;2.97;;;;;4.20;95160.00;;;;4986161;28;20944;-69
2023/12/01 00:53:49;;;;;;;8.17;2.57;;;;;4.10;95155.00;;;;4990317;28;20422;-69
2023/12/01 00:56:38;;;;;;;13.53;4.20;;;;;4.20;95171.00;;;;4986905;28;20951;-69
2023/12/01 00:59:27;;;;;;;4.80;1.77;;;;;4.60;95157.00;;;;4990324;28;20430;-69
2023/12/01 01:02:17;;;;;;;6.03;2.03;;;;;4.70;95168.00;;;;4987981;28;20442;-69
2023/12/01 01:05:08;;;;;;;9.57;3.03;;;;;4.60;95166.00;;;;4983440;28;20434;-69
2023/12/01 01:07:57;;;;;;;7.97;2.50;;;;;4.80;95175.00;;;;4981452;28;20457;-69
2023/12/01 01:10:46;;;;;;;11.53;3.63;;;;;4.90;95184.00;;;;4988096;28;20452;-69
2023/12/01 01:13:35;;;;;;;18.90;5.57;;;;;4.90;95188.00;;;;4986773;28;20427;-69
2023/12/01 01:16:24;;;;;;;7.23;2.27;;;;;4.80;95188.00;;;;4982827;28;21152;-69
2023/12/01 01:19:15;;;;;;;9.20;2.93;;;;;4.80;95179.00;;;;4987245;28;20419;-69
2023/12/01 01:22:04;;;;;;;9.47;3.00;;;;;4.60;95180.00;;;;4985920;28;20441;-69
2023/12/01 01:24:53;;;;;;;5.70;2.00;;;;;4.50;95176.00;;;;4988529;28;20203;-69
2023/12/01 01:27:42;;;;;;;16.17;4.90;;;;;4.70;95172.00;;;;4985892;28;20250;-69
2023/12/01 01:30:32;;;;;;;14.37;4.23;;;;;4.80;95201.00;;;;4984110;28;20439;-69
2023/12/01 01:33:21;;;;;;;9.23;2.87;;;;;4.80;95196.00;;;;4984194;28;20207;-69
2023/12/01 01:36:13;;;;;;;10.70;3.27;;;;;4.90;95195.00;;;;4986761;28;20206;-69
2023/12/01 01:39:02;;;;;;;15.07;4.43;;;;;4.70;95209.00;;;;4988270;28;20715;-69
2023/12/01 01:41:51;;;;;;;14.53;4.30;;;;;4.60;95197.00;;;;4988504;28;20199;-69
2023/12/01 01:44:40;;;;;;;6.50;2.10;;;;;4.80;95197.00;;;;4989322;28;20235;-67
2023/12/01 01:47:30;;;;;;;3.33;1.33;;;;;4.90;95192.00;;;;4985339;28;20703;-69
2023/12/01 01:50:22;;;;;;;13.53;4.20;;;;;4.90;95191.00;;;;4988479;28;20671;-69
2023/12/01 01:53:13;;;;;;;9.93;3.03;;;;;5.00;95181.00;;;;4986522;28;20213;-69
2023/12/01 01:56:02;;;;;;;6.93;2.13;;;;;5.00;95181.00;;;;4989292;28;20206;-69
2023/12/01 01:58:51;;;;;;;16.90;4.90;;;;;5.10;95179.00;;;;4988079;28;20241;-69
2023/12/01 02:01:40;;;;;;;18.67;5.50;;;;;5.10;95201.00;;;;4985344;28;20206;-69
2023/12/01 02:04:29;;;;;;;9.73;3.03;;;;;4.90;95186.00;;;;4985622;28;20844;-69
2023/12/01 02:07:28;;;;;;;10.30;3.17;;;;;4.70;95173.00;;;;4988244;28;20238;-69
2023/12/01 02:10:18;;;;;;;12.83;3.83;;;;;4.50;95180.00;;;;4987738;28;20207;-69
2023/12/01 02:13:10;;;;;;;12.50;3.80;;;;;4.60;95179.00;;;;4987278;28;20220;-69
2023/12/01 02:16:00;;;;;;;6.57;2.13;;;;;4.40;95177.00;;;;4986259;28;20233;-69
2023/12/01 02:18:51;;;;;;;12.60;3.73;;;;;4.50;95194.00;;;;4983568;28;20226;-69
2023/12/01 02:21:44;;;;;;;12.07;3.60;;;;;4.40;95193.00;;;;4986551;28;20203;-69
2023/12/01 02:24:33;;;;;;;16.40;4.87;;;;;4.40;95193.00;;;;4991860;28;20723;-69
2023/12/01 02:27:22;;;;;;;9.07;2.90;;;;;4.40;95195.00;;;;4994189;28;20457;-69
2023/12/01 02:30:12;;;;;;;16.67;4.90;;;;;4.50;95189.00;;;;4993491;28;20293;-69
2023/12/01 02:33:01;;;;;;;8.90;2.80;;;;;4.60;95191.00;;;;4991522;28;20283;-69
2023/12/01 02:35:52;;;;;;;8.10;2.60;;;;;4.70;95185.00;;;;4994166;28;20433;-69
2023/12/01 02:38:42;;;;;;;17.07;5.03;;;;;4.60;95193.00;;;;4991618;28;20454;-69
2023/12/01 02:41:31;;;;;;;13.40;4.10;;;;;4.70;95188.00;;;;4991869;28;20429;-68
2023/12/01 02:44:21;;;;;;;9.07;2.97;;;;;4.70;95207.00;;;;4995262;28;20244;-69
2023/12/01 02:47:10;;;;;;;10.27;3.20;;;;;4.80;95193.00;;;;4994520;28;20460;-69
2023/12/01 02:49:59;;;;;;;9.20;2.80;;;;;4.80;95193.00;;;;4991631;28;20198;-69
2023/12/01 02:52:48;;;;;;;8.63;2.73;;;;;4.70;95189.00;;;;4988956;28;20437;-69
2023/12/01 02:55:39;;;;;;;14.67;4.40;;;;;4.70;95195.00;;;;4992172;28;20199;-69
2023/12/01 02:58:28;;;;;;;7.43;2.40;;;;;4.80;95196.00;;;;4994935;28;20468;-69
2023/12/01 03:01:18;;;;;;;9.93;3.07;;;;;4.80;95188.00;;;;4990438;28;20218;-69
2023/12/01 03:04:07;;;;;;;10.93;3.33;;;;;4.80;95195.00;;;;4992938;28;20466;-69
2023/12/01 03:06:56;;;;;;;10.07;3.17;;;;;4.80;95205.00;;;;4992029;28;20206;-69
2023/12/01 03:09:45;;;;;;;17.10;5.13;;;;;4.80;95209.00;;;;4993445;28;20939;-69
2023/12/01 03:12:36;;;;;;;17.20;5.03;;;;;4.90;95202.00;;;;4992035;28;20683;-69
2023/12/01 03:15:25;;;;;;;12.97;3.93;;;;;4.80;95198.00;;;;4988899;28;20805;-69
2023/12/01 03:18:14;;;;;;;7.87;2.57;;;;;4.80;95192.00;;;;4989791;28;20229;-69
2023/12/01 03:21:11;;;;;;;9.53;3.00;;;;;4.80;95188.00;;;;4992749;28;20205;-69
2023/12/01 03:24:01;;;;;;;9.87;2.93;;;;;4.80;95191.00;;;;4986291;28;20750;-69
2023/12/01 03:26:50;;;;;;;9.23;2.77;;;;;4.90;95184.00;;;;4989604;28;20221;-69
2023/12/01 03:29:40;;;;;;;14.87;4.43;;;;;4.90;95191.00;;;;4992183;28;20221;-69
2023/12/01 03:32:30;;;;;;;12.00;3.57;;;;;4.70;95190.00;;;;4993627;28;20207;-69
2023/12/01 03:35:20;;;;;;;14.77;4.33;;;;;4.80;95193.00;;;;4993223;28;20206;-68
2023/12/01 03:38:09;;;;;;;8.03;2.63;;;;;4.90;95194.00;;;;4989371;28;20276;-69
2023/12/01 03:41:00;;;;;;;8.70;2.67;;;;;4.80;95194.00;;;;4987520;28;20210;-69
2023/12/01 03:43:49;;;;;;;8.53;2.80;;;;;4.70;95186.00;;;;4990521;28;21703;-69
2023/12/01 03:46:39;;;;;;;19.00;5.57;;;;;4.60;95181.00;;;;4988498;28;20588;-69
2023/12/01 03:49:29;;;;;;;8.53;2.77;;;;;4.70;95188.00;;;;4988084;28;20284;-69
2023/12/01 03:52:18;;;;;;;10.47;3.23;;;;;4.70;95185.00;;;;4988711;28;20426;-68
2023/12/01 03:55:07;;;;;;;10.47;3.17;;;;;4.80;95186.00;;;;4990682;28;20447;-68
2023/12/01 03:57:56;;;;;;;9.70;3.07;;;;;4.80;95176.00;;;;4987149;28;20222;-69
2023/12/01 04:00:46;;;;;;;9.17;2.80;;;;;4.80;95172.00;;;;4985174;28;20203;-69
2023/12/01 04:03:37;;;;;;;16.23;4.80;;;;;4.70;95165.00;;;;4987711;28;20695;-69
2023/12/01 04:06:26;;;;;;;11.77;3.50;;;;;4.80;95171.00;;;;4990664;28;20438;-69
2023/12/01 04:09:16;;;;;;;10.80;3.20;;;;;4.70;95170.00;;;;4991000;28;20442;-69
2023/12/01 04:12:06;;;;;;;6.90;2.13;;;;;4.70;95165.00;;;;4983628;28;20438;-68
2023/12/01 04:14:55;;;;;;;9.47;2.87;;;;;4.70;95174.00;;;;4985933;28;20925;-69
2023/12/01 04:17:45;;;;;;;11.20;3.40;;;;;4.70;95196.00;;;;4988794;28;20617;-69
2023/12/01 04:20:38;;;;;;;15.57;4.70;;;;;4.70;95177.00;;;;4987617;28;20430;-68
2023/12/01 04:23:29;;;;;;;5.63;1.83;;;;;4.80;95170.00;;;;4987873;28;20454;-69
2023/12/01 04:26:18;;;;;;;4.67;1.60;;;;;4.60;95171.00;;;;4986631;28;20230;-68
2023/12/01 04:29:07;;;;;;;4.93;1.70;;;;;4.70;95169.00;;;;4988645;28;20249;-68
2023/12/01 04:31:56;;;;;;;10.07;3.00;;;;;4.70;95172.00;;;;4990349;28;20751;-68
2023/12/01 04:34:48;;;;;;;15.53;4.57;;;;;4.70;95169.00;;;;4989051;28;20206;-69
2023/12/01 04:37:38;;;;;;;16.53;4.73;;;;;4.80;95175.00;;;;4987011;28;20962;-69
2023/12/01 04:40:28;;;;;;;7.33;2.40;;;;;4.80;95171.00;;;;4987750;28;20307;-69
2023/12/01 04:43:17;;;;;;;13.00;3.90;;;;;4.70;95172.00;;;;4984066;28;20465;-69
2023/12/01 04:46:07;;;;;;;7.40;2.40;;;;;4.80;95181.00;;;;4987145;28;20222;-69
2023/12/01 04:48:56;;;;;;;13.83;4.03;;;;;4.70;95172.00;;;;4982333;28;20219;-69
2023/12/01 04:51:45;;;;;;;20.00;5.83;;;;;4.70;95166.00;;;;4983118;28;20887;-69
2023/12/01 04:54:36;;;;;;;15.60;4.50;;;;;4.60;95160.00;;;;4986620;28;20421;-69
2023/12/01 04:57:26;;;;;;;9.27;2.83;;;;;4.80;95162.00;;;;4989389;28;20222;-68
2023/12/01 05:00:23;;;;;;;14.50;4.20;;;;;4.70;95164.00;;;;4989292;28;20233;-69
2023/12/01 05:03:12;;;;;;;8.37;2.60;;;;;4.80;95165.00;;;;4990127;28;20750;-69
2023/12/01 05:06:01;;;;;;;8.10;2.60;;;;;4.80;95157.00;;;;4990549;28;20624;-69
2023/12/01 05:08:50;;;;;;;17.33;5.10;;;;;4.80;95151.00;;;;4988900;28;20261;-69
2023/12/01 05:11:40;;;;;;;17.50;5.00;;;;;4.80;95149.00;;;;4980808;28;20860;-69
2023/12/01 05:14:29;;;;;;;17.90;5.23;;;;;4.80;95153.00;;;;4986389;28;20205;-69
2023/12/01 05:17:18;;;;;;;11.63;3.43;;;;;4.80;95161.00;;;;4987791;28;20214;-69
2023/12/01 05:20:15;;;;;;;11.80;3.57;;;;;4.60;95156.00;;;;4982354;28;20846;-69
2023/12/01 05:23:05;;;;;;;11.20;3.40;;;;;4.70;95160.00;;;;4985374;28;20817;-69
2023/12/01 05:25:54;;;;;;;8.53;2.50;;;;;4.50;95148.00;;;;4984618;28;20614;-68
2023/12/01 05:28:45;;;;;;;22.50;6.30;;;;;4.60;95158.00;;;;4982209;28;20218;-69
2023/12/01 05:31:34;;;;;;;14.57;4.13;;;;;4.30;95167.00;;;;4985559;28;20213;-69
2023/12/01 05:34:23;;;;;;;9.67;2.90;;;;;4.20;95177.00;;;;4987786;28;20211;-69
2023/12/01 05:37:12;;;;;;;10.57;3.20;;;;;4.10;95181.00;;;;4987319;28;20254;-69
2023/12/01 05:40:01;;;;;;;7.77;2.50;;;;;4.40;95179.00;;;;4986875;28;20999;-69
2023/12/01 05:42:52;;;;;;;13.17;3.97;;;;;4.50;95174.00;;;;4985468;28;20669;-69
2023/12/01 05:45:43;;;;;;;19.33;5.57;;;;;4.50;95174.00;;;;4986523;28;21326;-69
2023/12/01 05:48:33;;;;;;;9.47;2.90;;;;;4.70;95175.00;;;;4984254;28;20454;-69
2023/12/01 05:51:22;;;;;;;10.37;3.20;;;;;4.50;95182.00;;;;4982003;28;20226;-68
2023/12/01 05:54:11;;;;;;;11.47;3.53;;;;;4.50;95174.00;;;;4982662;28;20215;-69
2023/12/01 05:57:00;;;;;;;10.77;3.23;;;;;4.40;95185.00;;;;4985046;28;20572;-69
2023/12/01 05:59:50;;;;;;;15.27;4.67;;;;;4.50;95195.00;;;;4986518;28;20206;-69
2023/12/01 06:02:40;;;;;;;17.27;5.10;;;;;4.30;95198.00;;;;4985827;28;20422;-69
2023/12/01 06:05:31;;;;;;;9.93;2.97;;;;;4.40;95197.00;;;;4982793;28;20221;-68
2023/12/01 06:08:20;;;;;;;5.97;1.97;;;;;4.50;95191.00;;;;4988098;28;20242;-69
2023/12/01 06:11:09;;;;;;;4.80;1.60;;;;;4.70;95193.00;;;;4986156;28;20217;-68
2023/12/01 06:13:59;;;;;;;9.47;2.87;;;;;4.50;95191.00;;;;4984587;28;20422;-68
2023/12/01 06:16:48;;;;;;;17.40;5.10;;;;;4.60;95180.00;;;;4986872;28;20205;-68
2023/12/01 06:19:39;;;;;;;17.43;5.07;;;;;4.80;95184.00;;;;4984431;28;20206;-68
2023/12/01 06:22:28;;;;;;;13.03;4.00;;;;;4.80;95192.00;;;;4985004;28;20434;-69
2023/12/01 06:25:19;;;;;;;14.40;4.30;;;;;4.80;95191.00;;;;4985838;28;20473;-69
2023/12/01 06:28:09;;;;;;;9.97;3.07;;;;;4.60;95186.00;;;;4983010;28;20459;-69
2023/12/01 06:30:59;;;;;;;10.80;3.20;;;;;4.80;95177.00;;;;4985358;28;20207;-69
2023/12/01 06:33:48;;;;;;;18.07;5.30;;;;;4.60;95182.00;;;;4983095;28;20970;-69
2023/12/01 06:36:38;;;;;;;16.07;4.63;;;;;4.70;95189.00;;;;4985476;28;20434;-69
2023/12/01 06:39:28;;;;;;;9.20;2.83;;;;;4.60;95189.00;;;;4982693;28;20461;-69
2023/12/01 06:42:17;;;;;;;12.33;3.67;;;;;4.50;95201.00;;;;4985075;28;20223;-69
2023/12/01 06:45:07;;;;;;;11.10;3.30;;;;;4.50;95207.00;;;;4984063;28;20436;-69
2023/12/01 06:47:59;;;;;;;4.53;1.53;;;;;4.70;95205.00;;;;4985384;28;20934;-69
2023/12/01 06:50:48;;;;;;;18.30;5.33;;;;;4.70;95201.00;;;;4983529;28;20438;-69
2023/12/01 06:53:39;;;;;;;18.63;5.33;;;;;4.80;95211.00;;;;4984581;28;20437;-69
2023/12/01 06:56:28;;;;;;;11.67;3.50;;;;;4.80;95206.00;;;;4981114;28;20206;-69
2023/12/01 06:59:17;;;;;;;10.73;3.30;;;;;4.80;95212.00;;;;4984681;28;20229;-69
2023/12/01 07:02:06;;;;;;;10.10;3.20;;;;;4.80;95214.00;;;;4984131;28;20222;-69
2023/12/01 07:04:55;;;;;;;9.63;2.93;;;;;4.60;95222.00;;;;4986565;28;20426;-69
2023/12/01 07:07:44;;;;;;;10.67;3.20;;;;;4.60;95216.00;;;;4985432;28;20711;-69
2023/12/01 07:10:35;;;;;;;10.37;3.17;;;;;4.40;95217.00;;;;4989801;28;20966;-69
2023/12/01 07:13:24;;;;;;;9.87;3.03;;;;;4.50;95220.00;;;;4988628;28;20810;-69
2023/12/01 07:16:13;;;;;;;12.13;3.70;;;;;4.80;95224.00;;;;4988659;28;20818;-69
2023/12/01 07:19:03;;;;;;;10.00;3.00;;;;;4.80;95220.00;;;;4988937;28;20460;-68
2023/12/01 07:21:52;;;;;;;16.20;4.77;;;;;4.90;95231.00;;;;4987174;28;20455;-68
2023/12/01 07:24:42;;;;;;;21.27;6.10;;;;;5.00;95230.00;;;;4984792;28;20438;-68
2023/12/01 07:27:32;;;;;;;10.53;3.33;;;;;4.90;95227.00;;;;4990562;28;20833;-69
2023/12/01 07:30:21;;;;;;;10.90;3.30;;;;;4.90;95233.00;;;;4991519;28;20209;-69
2023/12/01 07:33:10;;;;;;;11.17;3.37;;;;;5.00;95225.00;;;;4986105;28;20609;-69
2023/12/01 07:36:00;;;;;;;10.00;3.00;;;;;5.00;95229.00;;;;4987388;28;20203;-69
2023/12/01 07:38:49;;;;;;;18.93;5.43;;;;;5.00;95223.00;;;;4983608;28;20228;-70
2023/12/01 07:41:38;;;;;;;15.13;4.50;;;;;5.00;95212.00;;;;4983816;28;20211;-69
2023/12/01 07:44:29;;;;;;;9.50;2.80;;;;;5.10;95209.00;;;;4991287;28;20418;-69
2023/12/01 07:47:18;;;;;;;12.00;3.57;;;;;5.10;95217.00;;;;4983515;28;20481;-69
2023/12/01 07:50:09;;;;;;;11.17;3.33;;;;;4.90;95211.00;;;;4988206;28;20209;-69
2023/12/01 07:52:58;;;;;;;17.37;4.83;;;;;5.00;95216.00;;;;4987133;28;20206;-69
2023/12/01 07:55:47;;;;;;;11.07;3.30;;;;;4.90;95203.00;;;;4987004;28;20418;-69
2023/12/01 07:58:36;;;;;;;11.73;3.40;;;;;4.90;95219.00;;;;4984101;28;20222;-69
2023/12/01 08:01:26;;;;;;;12.07;3.60;;;;;4.80;95208.00;;;;4987117;28;20206;-70
2023/12/01 08:04:16;;;;;;;7.97;2.43;;;;;5.00;95196.00;;;;4989065;28;20211;-70
2023/12/01 08:07:05;;;;;;;8.70;2.70;;;;;4.90;95206.00;;;;4990056;28;20222;-69
2023/12/01 08:09:54;;;;;;;7.00;2.30;;;;;4.90;95207.00;;;;4984653;28;20212;-69
2023/12/01 08:12:43;;;;;;;10.10;3.07;;;;;5.20;95198.00;;;;4985795;28;20207;-69
2023/12/01 08:15:33;;;;;;;11.87;3.43;;;;;5.40;95193.00;;;;4990741;28;20217;-69
2023/12/01 08:18:23;;;;;;;16.50;4.83;;;;;5.30;95190.00;;;;4989784;28;20222;-69
2023/12/01 08:21:12;;;;;;;12.67;3.77;;;;;5.30;95195.00;;;;4989851;28;20217;-69
2023/12/01 08:24:01;;;;;;;13.10;3.87;;;;;5.30;95206.00;;;;4987976;28;20199;-69
2023/12/01 08:26:51;;;;;;;14.67;4.33;;;;;5.20;95217.00;;;;4990872;28;20221;-69
2023/12/01 08:29:41;;;;;;;19.57;5.63;;;;;5.40;95217.00;;;;4989953;28;20209;-69
2023/12/01 08:32:30;;;;;;;10.40;3.13;;;;;5.40;95211.00;;;;4989143;28;20207;-70
2023/12/01 08:35:21;;;;;;;16.43;4.73;;;;;5.30;95217.00;;;;4990399;28;20672;-69
2023/12/01 08:38:11;;;;;;;22.70;6.27;;;;;5.50;95213.00;;;;4989031;28;20224;-68
2023/12/01 08:41:00;;;;;;;10.50;3.20;;;;;5.50;95211.00;;;;4991866;28;20210;-68
2023/12/01 08:43:49;;;;;;;10.07;2.97;;;;;5.60;95217.00;;;;4994899;28;20214;-69
2023/12/01 08:46:38;;;;;;;25.63;7.03;;;;;5.60;95210.00;;;;4993040;28;20221;-68
2023/12/01 08:49:27;;;;;;;10.20;3.10;;;;;5.60;95216.00;;;;4989352;28;20706;-68
2023/12/01 08:52:18;;;;;;;15.70;4.60;;;;;5.60;95205.00;;;;4987228;28;20211;-68
2023/12/01 08:55:07;;;;;;;12.17;3.50;;;;;5.60;95206.00;;;;4983732;28;20226;-68
2023/12/01 08:57:56;;;;;;;7.43;2.37;;;;;5.60;95217.00;;;;4987778;28;20211;-68
2023/12/01 09:00:46;;;;;;;16.47;4.63;;;;;5.40;95213.00;;;;4988215;28;20230;-68
2023/12/01 09:03:36;;;;;;;5.70;1.97;;;;;5.60;95220.00;;;;4986658;28;20257;-68
2023/12/01 09:06:25;;;;;;;12.20;3.57;;;;;5.70;95215.00;;;;4988962;28;20218;-68
2023/12/01 09:09:15;;;;;;;11.97;3.50;;;;;5.70;95220.00;;;;4988465;28;20876;-68
2023/12/01 09:12:05;;;;;;;13.67;3.90;;;;;5.70;95214.00;;;;4985194;28;20210;-68
2023/12/01 09:14:54;;;;;;;6.43;2.07;;;;;5.60;95213.00;;;;4985590;28;20208;-68
2023/12/01 09:17:43;;;;;;;19.63;5.43;;;;;5.60;95208.00;;;;4986017;28;20234;-68
2023/12/01 09:20:32;;;;;;;7.17;2.37;;;;;5.60;95213.00;;;;4988483;28;20224;-68
2023/12/01 09:23:21;;;;;;;11.50;3.43;;;;;5.50;95217.00;;;;4994319;28;20209;-69
2023/12/01 09:26:18;;;;;;;12.57;3.67;;;;;5.50;95215.00;;;;4992545;28;20198;-68
2023/12/01 09:29:08;;;;;;;12.17;3.67;;;;;5.60;95224.00;;;;4991698;28;20702;-68
2023/12/01 09:31:57;;;;;;;15.63;4.43;;;;;5.70;95219.00;;;;4995272;28;20195;-68
2023/12/01 09:34:46;;;;;;;16.80;4.77;;;;;5.80;95208.00;;;;4994620;28;20902;-68
2023/12/01 09:37:36;;;;;;;8.23;2.60;;;;;5.80;95212.00;;;;4994470;28;20219;-68
2023/12/01 09:40:25;;;;;;;25.30;7.03;;;;;5.60;95224.00;;;;4992914;28;20215;-68
2023/12/01 09:43:18;;;;;;;14.23;4.03;;;;;5.70;95222.00;;;;4992381;28;20214;-69
2023/12/01 09:46:09;;;;;;;12.47;3.60;;;;;5.70;95207.00;;;;4992889;28;20206;-68
2023/12/01 09:48:59;;;;;;;29.27;7.93;;;;;5.70;95207.00;;;;4986492;28;20222;-68
2023/12/01 09:51:48;;;;;;;13.73;4.00;;;;;5.80;95202.00;;;;4984639;28;20221;-69
2023/12/01 09:54:38;;;;;;;11.43;3.40;;;;;5.90;95201.00;;;;4992346;28;20198;-68
2023/12/01 09:57:29;;;;;;;14.77;4.30;;;;;5.90;95197.00;;;;4986817;28;20610;-68
2023/12/01 10:00:20;;;;;;;13.50;3.90;;;;;6.00;95186.00;;;;4987730;28;20269;-68
2023/12/01 10:03:09;;;;;;;8.57;2.63;;;;;6.00;95184.00;;;;4991132;28;20210;-68
2023/12/01 10:05:59;;;;;;;10.30;2.97;;;;;5.90;95181.00;;;;4987920;28;20209;-68
2023/12/01 10:08:50;;;;;;;24.10;6.70;;;;;5.80;95184.00;;;;4986780;28;20231;-68
2023/12/01 10:11:39;;;;;;;19.40;5.50;;;;;5.70;95173.00;;;;4991132;28;20580;-68
2023/12/01 10:14:28;;;;;;;10.37;2.97;;;;;5.80;95176.00;;;;4994883;28;20219;-68
2023/12/01 10:17:26;;;;;;;17.10;4.83;;;;;5.90;95167.00;;;;4985325;28;20234;-68
2023/12/01 10:20:18;;;;;;;23.57;6.63;;;;;5.60;95166.00;;;;4983841;28;20293;-69
2023/12/01 10:23:18;;;;;;;11.33;3.27;;;;;5.80;95156.00;;;;4986802;28;20199;-68
2023/12/01 10:26:09;;;;;;;10.97;3.10;;;;;6.10;95163.00;;;;4989585;28;20206;-69
2023/12/01 10:28:58;;;;;;;14.00;4.07;;;;;6.10;95170.00;;;;4986221;28;20226;-69
2023/12/01 10:31:49;;;;;;;20.20;5.60;;;;;6.10;95157.00;;;;4985146;28;20679;-69
2023/12/01 10:34:40;;;;;;;15.37;4.43;;;;;6.30;95151.00;;;;4984556;28;20198;-69
2023/12/01 10:37:31;;;;;;;8.77;2.80;;;;;6.40;95154.00;;;;4987709;28;20226;-69
2023/12/01 10:40:20;;;;;;;15.37;4.47;;;;;6.30;95140.00;;;;4985158;28;20202;-69
2023/12/01 10:43:10;;;;;;;15.67;4.53;;;;;6.20;95151.00;;;;4995424;28;20202;-69
2023/12/01 10:46:02;;;;;;;10.40;3.07;;;;;6.00;95156.00;;;;5001635;28;20210;-69
2023/12/01 10:48:52;;;;;;;27.07;7.40;;;;;6.10;95168.00;;;;4998007;28;20226;-69
2023/12/01 10:51:42;;;;;;;27.33;7.60;;;;;6.20;95148.00;;;;5000063;28;20202;-69
2023/12/01 10:54:34;;;;;;;8.70;2.63;;;;;6.30;95154.00;;;;4999669;28;20583;-69
2023/12/01 10:57:31;;;;;;;9.53;2.77;;;;;6.50;95148.00;;;;4999972;28;20237;-69
2023/12/01 11:00:30;;;;;;;17.50;5.00;;;;;6.40;95163.00;;;;5002936;28;20214;-69
2023/12/01 11:03:22;;;;;;;9.97;2.97;;;;;6.40;95162.00;;;;4997781;28;20293;-69
2023/12/01 11:06:18;;;;;;;13.20;3.80;;;;;6.40;95143.00;;;;4987284;28;20203;-69
2023/12/01 11:09:14;;;;;;;11.77;3.90;;;;;6.40;95131.00;;;;5026126;23;20238;-64
2023/12/01 11:12:11;;;;;;;10.87;3.73;;;;;6.40;95127.00;;;;5026166;28;20267;-64
2023/12/01 11:15:08;;;;;;;10.80;3.57;;;;;6.60;95135.00;;;;5025031;28;20209;-63
2023/12/01 11:17:57;;;;;;;7.73;2.57;;;;;6.50;95142.00;;;;5010148;28;20248;-63
2023/12/01 11:20:48;;;;;;;16.43;5.20;;;;;6.50;95137.00;;;;5002552;28;20674;-63
2023/12/01 11:23:37;;;;;;;7.07;2.47;;;;;6.40;95136.00;;;;5004347;28;20212;-63
2023/12/01 11:26:31;;;;;;;9.60;3.10;;;;;6.20;95129.00;;;;5005395;28;20212;-64
2023/12/01 11:29:28;;;;;;;12.80;4.20;;;;;6.10;95131.00;;;;5003212;28;20292;-64
2023/12/01 11:32:17;;;;;;;20.83;6.50;;;;;6.30;95133.00;;;;5004486;28;20209;-62
2023/12/01 11:35:09;;;;;;;14.63;4.63;;;;;6.40;95125.00;;;;5004953;28;20211;-63
2023/12/01 11:38:03;;;;;;;10.13;3.47;;;;;6.10;95132.00;;;;5002832;28;20226;-64
2023/12/01 11:40:52;;;;;;;23.50;7.37;;;;;6.10;95129.00;;;;5003321;28;20216;-63
2023/12/01 11:44:04;;;;;;;21.47;6.67;;;;;6.60;95124.00;;;;5002760;28;20205;-63
2023/12/01 11:46:56;;;;;;;17.17;5.70;;;;;6.50;95132.00;;;;5001322;28;20204;-63
2023/12/01 11:49:46;;;;;;;20.77;6.53;;;;;6.60;95111.00;;;;5003927;28;20296;-63
2023/12/01 11:52:36;;;;;;;6.73;2.43;;;;;6.80;95110.00;;;;5001223;28;20728;-63
2023/12/01 11:55:25;;;;;;;14.63;4.67;;;;;6.80;95120.00;;;;5004548;28;20206;-63
2023/12/01 11:58:18;;;;;;;15.67;4.97;;;;;6.90;95129.00;;;;5006117;28;20221;-64
2023/12/01 12:01:08;;;;;;;13.10;4.20;;;;;6.90;95128.00;;;;5003682;28;20249;-64
2023/12/01 12:03:58;;;;;;;5.77;2.17;;;;;7.00;95121.00;;;;5003507;28;20218;-63
2023/12/01 12:06:48;;;;;;;18.10;5.83;;;;;7.00;95122.00;;;;5009305;28;20206;-64
2023/12/01 12:09:38;;;;;;;5.00;1.80;;;;;6.70;95109.00;;;;5008082;28;20229;-65
2023/12/01 12:12:30;;;;;;;10.53;3.53;;;;;6.30;95108.00;;;;5004270;28;20198;-65
2023/12/01 12:15:19;;;;;;;17.90;5.73;;;;;6.80;95116.00;;;;5002215;28;20233;-64
2023/12/01 12:18:10;;;;;;;16.87;5.50;;;;;6.60;95117.00;;;;5002332;28;20733;-64
2023/12/01 12:21:02;;;;;;;22.77;7.17;;;;;6.90;95119.00;;;;4993529;28;20268;-65
2023/12/01 12:23:51;;;;;;;18.07;5.73;;;;;6.90;95117.00;;;;5003548;28;20205;-64
2023/12/01 12:26:40;;;;;;;12.57;4.13;;;;;7.10;95125.00;;;;5003953;28;20213;-64
2023/12/01 12:29:30;;;;;;;7.53;2.67;;;;;7.20;95109.00;;;;5002802;28;20232;-64
2023/12/01 12:32:19;;;;;;;5.13;1.93;;;;;7.20;95119.00;;;;5008382;28;20704;-64
2023/12/01 12:35:10;;;;;;;5.70;1.97;;;;;7.10;95122.00;;;;5000682;28;20625;-63
2023/12/01 12:37:59;;;;;;;9.93;3.30;;;;;7.10;95117.00;;;;5002108;28;20234;-64
2023/12/01 12:40:48;;;;;;;22.93;7.27;;;;;7.20;95114.00;;;;4999484;28;20208;-64
2023/12/01 12:43:37;;;;;;;9.87;3.47;;;;;7.00;95107.00;;;;5002317;28;20217;-63
2023/12/01 12:46:27;;;;;;;10.00;3.27;;;;;7.10;95109.00;;;;5004592;28;20202;-64
2023/12/01 12:49:16;;;;;;;10.10;3.37;;;;;6.60;95105.00;;;;5000763;28;20229;-64
2023/12/01 12:52:07;;;;;;;10.27;3.37;;;;;6.80;95111.00;;;;5000331;28;20214;-63
2023/12/01 12:54:56;;;;;;;11.33;3.77;;;;;6.80;95110.00;;;;5000936;28;20211;-64
2023/12/01 12:57:45;;;;;;;13.57;4.27;;;;;6.90;95124.00;;;;5002112;28;20222;-64
2023/12/01 13:00:34;;;;;;;11.67;3.83;;;;;6.80;95114.00;;;;5003345;28;20198;-63
2023/12/01 13:03:23;;;;;;;9.00;3.03;;;;;6.90;95108.00;;;;5006886;28;20217;-63
2023/12/01 13:06:13;;;;;;;9.93;3.30;;;;;6.80;95115.00;;;;5002941;28;20212;-63
2023/12/01 13:09:04;;;;;;;7.67;2.77;;;;;6.80;95109.00;;;;4999960;28;20543;-64
2023/12/01 13:11:53;;;;;;;16.60;5.43;;;;;6.90;95106.00;;;;5003980;28;20202;-64
2023/12/01 13:14:42;;;;;;;13.87;4.63;;;;;6.90;95089.00;;;;5001113;28;20655;-64
2023/12/01 13:17:32;;;;;;;10.37;3.40;;;;;6.90;95079.00;;;;5003988;28;20234;-64
2023/12/01 13:20:21;;;;;;;12.57;4.07;;;;;6.90;95087.00;;;;5001961;28;20205;-64
2023/12/01 13:23:10;;;;;;;9.97;3.30;;;;;6.50;95098.00;;;;5004118;28;20241;-64
2023/12/01 13:26:00;;;;;;;7.97;2.73;;;;;6.80;95092.00;;;;5003766;28;20202;-63
2023/12/01 13:28:50;;;;;;;33.53;10.57;;;;;6.90;95096.00;;;;4989680;28;20234;-64
2023/12/01 13:31:41;;;;;;;11.37;3.80;;;;;6.90;95097.00;;;;4997101;28;20217;-64
2023/12/01 13:34:30;;;;;;;7.90;2.63;;;;;6.90;95073.00;;;;4999101;28;20210;-64
2023/12/01 13:37:19;;;;;;;13.57;4.37;;;;;6.90;95090.00;;;;4997248;28;20237;-64
2023/12/01 13:40:10;;;;;;;15.97;5.20;;;;;6.90;95104.00;;;;5001405;28;20198;-64
2023/12/01 13:43:00;;;;;;;7.83;2.63;;;;;6.90;95096.00;;;;4999041;28;20206;-64
2023/12/01 13:45:49;;;;;;;21.30;6.83;;;;;6.90;95095.00;;;;5001916;28;20209;-64
2023/12/01 13:48:39;;;;;;;9.53;3.17;;;;;6.90;95095.00;;;;5002764;28;20301;-64
2023/12/01 13:51:28;;;;;;;11.37;3.73;;;;;6.90;95101.00;;;;5003174;28;20642;-63
2023/12/01 13:54:17;;;;;;;12.43;4.00;;;;;6.90;95099.00;;;;5000631;28;20206;-65
2023/12/01 13:57:07;;;;;;;10.90;3.60;;;;;6.80;95086.00;;;;4999564;28;20228;-64
2023/12/01 13:59:57;;;;;;;19.73;6.47;;;;;6.70;95097.00;;;;5003786;28;20276;-63
2023/12/01 14:02:47;;;;;;;17.77;5.73;;;;;6.80;95091.00;;;;5002872;28;21099;-63
2023/12/01 14:05:36;;;;;;;9.70;3.37;;;;;6.80;95084.00;;;;5003969;28;20687;-64
2023/12/01 14:08:26;;;;;;;6.13;2.30;;;;;6.80;95082.00;;;;5004188;28;20240;-64
2023/12/01 14:11:15;;;;;;;8.40;2.90;;;;;6.90;95084.00;;;;5005624;28;20213;-63
2023/12/01 14:14:04;;;;;;;8.57;2.93;;;;;6.80;95091.00;;;;5001065;28;20207;-63